createdAt,value
2023-10-04T00:00:21.219Z,4.70
2023-10-04T00:03:11.011Z,4.20
2023-10-04T00:05:38.358Z,4.10
2023-10-04T00:08:06.027Z,4.50
2023-10-04T00:10:40.289Z,5.20
2023-10-04T00:13:18.375Z,4.90
2023-10-04T00:15:46.478Z,3.30
2023-10-04T00:18:17.037Z,2.40
2023-10-04T00:20:45.920Z,1.90
2023-10-04T00:23:13.683Z,2.20
2023-10-04T00:25:40.402Z,1.30
2023-10-04T00:28:09.681Z,1.20
2023-10-04T00:30:36.207Z,1.60
2023-10-04T00:33:05.262Z,1.30
2023-10-04T00:35:32.105Z,1.60
2023-10-04T00:38:00.694Z,1.50
2023-10-04T00:40:31.806Z,1.10
2023-10-04T00:43:03.207Z,1.20
2023-10-04T00:45:33.331Z,1.30
2023-10-04T00:48:11.090Z,1.20
2023-10-04T00:50:42.834Z,1.00
2023-10-04T00:53:14.299Z,1.30
2023-10-04T00:55:46.508Z,1.00
2023-10-04T00:58:20.204Z,1.40
2023-10-04T01:00:52.738Z,1.40
2023-10-04T01:03:21.617Z,1.10
2023-10-04T01:05:52.159Z,1.30
2023-10-04T01:08:25.384Z,1.30
2023-10-04T01:27:59.423Z,1.20
2023-10-04T01:30:33.059Z,1.30
2023-10-04T01:33:04.537Z,1.30
2023-10-04T01:35:34.744Z,1.30
2023-10-04T01:38:08.053Z,1.30
2023-10-04T01:40:44.259Z,1.40
2023-10-04T01:43:19.025Z,1.50
2023-10-04T01:45:51.736Z,1.50
2023-10-04T01:48:23.409Z,1.60
2023-10-04T01:50:54.747Z,1.60
2023-10-04T01:53:28.203Z,1.40
2023-10-04T01:55:58.811Z,2.50
2023-10-04T01:58:32.557Z,1.70
2023-10-04T02:01:09.795Z,1.60
2023-10-04T02:03:38.565Z,1.60
2023-10-04T02:06:13.556Z,1.40
2023-10-04T02:08:47.216Z,1.50
2023-10-04T02:11:23.058Z,1.30
2023-10-04T02:13:58.781Z,1.60
2023-10-04T02:18:58.264Z,1.50
2023-10-04T02:21:32.267Z,1.50
2023-10-04T02:24:03.479Z,1.20
2023-10-04T02:26:32.865Z,1.10
2023-10-04T02:29:00.716Z,1.20
2023-10-04T02:31:35.681Z,1.30
2023-10-04T02:34:08.364Z,1.10
2023-10-04T02:36:45.204Z,2.20
2023-10-04T02:39:20.897Z,1.20
2023-10-04T02:41:53.999Z,1.50
2023-10-04T02:44:21.909Z,1.40
2023-10-04T02:46:49.921Z,1.80
2023-10-04T02:49:22.623Z,1.20
2023-10-04T02:51:53.288Z,1.40
2023-10-04T02:54:24.794Z,1.40
2023-10-04T02:56:59.595Z,1.50
2023-10-04T02:59:29.089Z,1.40
2023-10-04T03:01:57.278Z,1.10
2023-10-04T03:04:25.399Z,1.30
2023-10-04T03:06:53.634Z,1.20
2023-10-04T03:09:25.699Z,1.80
2023-10-04T03:11:54.501Z,1.30
2023-10-04T03:14:25.739Z,1.50
2023-10-04T03:17:09.461Z,1.50
2023-10-04T03:19:37.714Z,1.40
2023-10-04T03:22:09.275Z,1.60
2023-10-04T03:24:38.165Z,1.80
2023-10-04T03:27:09.975Z,1.20
2023-10-04T03:29:40.691Z,1.50
2023-10-04T03:32:13.731Z,1.40
2023-10-04T03:34:42.003Z,2.30
2023-10-04T03:37:15.534Z,1.50
2023-10-04T03:39:48.859Z,1.80
2023-10-04T03:42:17.308Z,1.80
2023-10-04T03:44:45.964Z,1.80
2023-10-04T03:47:22.187Z,1.50
2023-10-04T03:49:52.551Z,1.90
2023-10-04T03:52:24.652Z,1.80
2023-10-04T03:54:56.080Z,1.80
2023-10-04T03:57:30.194Z,2.00
2023-10-04T04:00:11.920Z,2.10
2023-10-04T04:02:41.103Z,2.30
2023-10-04T04:05:11.183Z,2.30
2023-10-04T04:07:44.751Z,2.20
2023-10-04T04:10:16.256Z,1.60
2023-10-04T04:12:46.510Z,2.50
2023-10-04T04:15:18.990Z,2.20
2023-10-04T04:17:49.735Z,2.30
2023-10-04T04:20:24.419Z,2.00
2023-10-04T04:22:55.959Z,2.00
2023-10-04T04:25:29.983Z,2.10
2023-10-04T04:27:58.521Z,2.00
2023-10-04T04:30:34.970Z,2.20
2023-10-04T04:33:11.924Z,2.00
2023-10-04T04:35:48.186Z,1.80
2023-10-04T04:38:26.401Z,2.20
2023-10-04T04:41:00.339Z,2.00
2023-10-04T05:02:05.024Z,2.20
2023-10-04T05:04:33.977Z,2.40
2023-10-04T05:07:08.025Z,2.20
2023-10-04T05:09:38.310Z,1.90
2023-10-04T05:12:06.649Z,2.40
2023-10-04T05:14:37.972Z,2.10
2023-10-04T05:17:16.417Z,2.10
2023-10-04T05:19:48.479Z,2.20
2023-10-04T05:22:21.023Z,1.80
2023-10-04T05:24:49.909Z,2.60
2023-10-04T05:27:20.951Z,1.90
2023-10-04T05:30:29.243Z,2.00
2023-10-04T05:32:58.243Z,2.60
2023-10-04T05:36:21.726Z,2.30
2023-10-04T05:58:42.097Z,1.80
2023-10-04T06:01:24.159Z,2.30
2023-10-04T06:03:55.325Z,1.70
2023-10-04T06:06:29.989Z,1.70
2023-10-04T06:09:04.172Z,1.50
2023-10-04T06:11:40.945Z,1.50
2023-10-04T06:14:17.560Z,2.20
2023-10-04T06:16:55.570Z,1.90
2023-10-04T06:19:31.767Z,1.90
2023-10-04T06:22:03.400Z,1.80
2023-10-04T06:24:36.436Z,1.80
2023-10-04T06:27:05.525Z,1.80
2023-10-04T06:29:33.635Z,1.60
2023-10-04T06:32:01.509Z,2.00
2023-10-04T06:34:34.239Z,2.60
2023-10-04T06:37:07.177Z,1.50
2023-10-04T06:39:35.404Z,1.70
2023-10-04T06:42:05.659Z,2.10
2023-10-04T06:44:33.584Z,1.80
2023-10-04T06:47:01.954Z,1.30
2023-10-04T06:49:32.425Z,1.90
2023-10-04T06:52:00.320Z,1.90
2023-10-04T06:54:28.266Z,2.10
2023-10-04T06:57:00.944Z,1.70
2023-10-04T07:01:59.268Z,1.70
2023-10-04T07:04:27.325Z,1.90
2023-10-04T07:06:55.396Z,2.20
2023-10-04T07:09:23.361Z,2.10
2023-10-04T07:11:51.621Z,1.80
2023-10-04T07:14:19.484Z,2.40
2023-10-04T07:16:54.991Z,2.00
2023-10-04T07:19:24.123Z,1.90
2023-10-04T07:21:56.136Z,2.30
2023-10-04T07:24:26.335Z,1.50
2023-10-04T07:26:57.050Z,2.20
2023-10-04T07:29:28.039Z,2.90
2023-10-04T07:31:59.199Z,1.70
2023-10-04T07:34:29.700Z,2.20
2023-10-04T07:36:57.891Z,3.70
2023-10-04T07:39:26.517Z,1.90
2023-10-04T07:41:57.089Z,2.20
2023-10-04T07:44:31.590Z,1.80
2023-10-04T07:47:02.634Z,2.20
2023-10-04T07:49:33.231Z,2.10
2023-10-04T07:52:04.750Z,2.40
2023-10-04T07:54:35.768Z,2.80
2023-10-04T07:57:07.508Z,1.90
2023-10-04T07:59:38.468Z,2.10
2023-10-04T08:02:06.727Z,2.00
2023-10-04T08:04:36.078Z,2.60
2023-10-04T08:07:04.284Z,2.00
2023-10-04T08:09:38.084Z,2.00
2023-10-04T08:12:08.734Z,2.00
2023-10-04T08:14:36.850Z,2.50
2023-10-04T08:17:05.654Z,2.20
2023-10-04T08:19:34.543Z,2.10
2023-10-04T08:22:04.853Z,1.90
2023-10-04T08:24:33.325Z,2.00
2023-10-04T08:27:03.829Z,1.80
2023-10-04T08:29:35.526Z,2.10
2023-10-04T08:32:04.641Z,2.30
2023-10-04T08:34:33.110Z,1.90
2023-10-04T08:37:01.409Z,2.10
2023-10-04T08:39:29.819Z,2.00
2023-10-04T08:42:00.536Z,2.10
2023-10-04T08:44:29.007Z,1.70
2023-10-04T08:47:05.080Z,2.10
2023-10-04T08:49:48.596Z,1.90
2023-10-04T08:52:36.472Z,1.90
2023-10-04T08:55:09.236Z,1.60
2023-10-04T08:57:40.257Z,2.60
2023-10-04T09:00:27.002Z,2.50
2023-10-04T09:02:59.390Z,2.10
2023-10-04T09:05:32.497Z,1.70
2023-10-04T09:08:03.053Z,2.30
2023-10-04T09:10:35.084Z,2.30
2023-10-04T09:13:10.228Z,1.70
2023-10-04T09:15:39.144Z,2.30
2023-10-04T09:18:08.964Z,2.10
2023-10-04T09:20:38.366Z,2.20
2023-10-04T09:23:17.801Z,2.00
2023-10-04T09:25:48.528Z,1.90
2023-10-04T09:28:19.826Z,2.10
2023-10-04T09:30:48.572Z,2.20
2023-10-04T09:33:29.637Z,2.30
2023-10-04T09:35:57.927Z,2.40
2023-10-04T09:38:31.742Z,2.40
2023-10-04T09:41:02.573Z,2.40
2023-10-04T09:43:38.721Z,2.10
2023-10-04T09:46:11.389Z,2.10
2023-10-04T09:48:45.022Z,1.60
2023-10-04T09:51:15.679Z,1.90
2023-10-04T09:53:45.010Z,2.50
2023-10-04T09:56:15.438Z,2.50
2023-10-04T09:58:56.226Z,2.20
2023-10-04T10:01:30.532Z,1.90
2023-10-04T10:04:09.367Z,1.70
2023-10-04T10:07:17.160Z,1.80
2023-10-04T10:10:02.555Z,1.90
2023-10-04T10:12:36.721Z,3.20
2023-10-04T10:15:05.951Z,2.10
2023-10-04T10:17:35.655Z,1.90
2023-10-04T10:20:05.647Z,2.30
2023-10-04T10:22:34.147Z,1.80
2023-10-04T10:25:05.159Z,2.10
2023-10-04T10:27:33.160Z,1.70
2023-10-04T10:30:05.667Z,1.90
2023-10-04T10:35:07.898Z,1.70
2023-10-04T10:37:41.278Z,2.40
2023-10-04T10:40:39.188Z,1.70
2023-10-04T10:43:11.332Z,1.90
2023-10-04T10:45:39.338Z,2.10
2023-10-04T10:48:10.110Z,2.10
2023-10-04T10:50:42.655Z,2.20
2023-10-04T10:53:13.298Z,1.90
2023-10-04T10:55:46.052Z,2.00
2023-10-04T10:58:19.436Z,2.20
2023-10-04T11:00:47.752Z,1.90
2023-10-04T11:03:22.151Z,1.90
2023-10-04T11:05:50.914Z,1.40
2023-10-04T11:08:19.217Z,1.60
2023-10-04T11:10:47.265Z,2.10
2023-10-04T11:13:19.679Z,2.30
2023-10-04T11:15:53.286Z,1.80
2023-10-04T11:18:21.825Z,2.20
2023-10-04T11:21:00.902Z,2.30
2023-10-04T11:23:31.758Z,2.00
2023-10-04T11:26:02.797Z,2.00
2023-10-04T11:28:31.899Z,1.80
2023-10-04T11:30:59.950Z,2.10
2023-10-04T11:33:28.316Z,2.20
2023-10-04T11:35:59.160Z,2.40
2023-10-04T11:38:29.217Z,2.40
2023-10-04T11:41:00.538Z,2.50
2023-10-04T11:43:30.961Z,2.20
2023-10-04T11:46:02.369Z,2.20
2023-10-04T11:48:37.041Z,1.90
2023-10-04T11:51:07.441Z,2.20
2023-10-04T11:53:43.790Z,1.80
2023-10-04T11:56:11.915Z,2.10
2023-10-04T11:58:56.016Z,1.80
2023-10-04T12:01:27.830Z,1.80
2023-10-04T12:04:03.953Z,2.00
2023-10-04T12:06:37.427Z,2.10
2023-10-04T12:09:09.213Z,1.70
2023-10-04T12:11:39.807Z,1.80
2023-10-04T12:14:10.363Z,1.80
2023-10-04T12:16:43.699Z,1.90
2023-10-04T12:19:13.967Z,2.00
2023-10-04T12:21:45.040Z,1.60
2023-10-04T12:24:13.208Z,1.50
2023-10-04T12:26:41.240Z,1.30
2023-10-04T12:29:12.554Z,1.70
2023-10-04T12:31:45.521Z,1.60
2023-10-04T12:34:16.223Z,1.40
2023-10-04T12:36:55.988Z,1.60
2023-10-04T12:39:25.678Z,2.40
2023-10-04T12:41:56.645Z,1.60
2023-10-04T12:44:29.400Z,2.40
2023-10-04T12:47:00.097Z,1.80
2023-10-04T12:49:30.988Z,1.70
2023-10-04T12:51:59.153Z,2.10
2023-10-04T12:54:30.166Z,1.70
2023-10-04T12:57:00.708Z,1.40
2023-10-04T12:59:31.290Z,1.50
2023-10-04T13:02:02.035Z,1.80
2023-10-04T13:04:32.242Z,1.50
2023-10-04T13:07:02.859Z,1.70
2023-10-04T13:09:48.681Z,1.80
2023-10-04T13:41:35.212Z,1.70
2023-10-04T13:44:02.199Z,1.70
2023-10-04T13:46:32.157Z,1.60
2023-10-04T13:48:59.667Z,1.80
2023-10-04T13:51:26.341Z,2.10
2023-10-04T13:53:55.407Z,1.60
2023-10-04T13:56:24.540Z,1.60
2023-10-04T13:58:53.702Z,2.00
2023-10-04T14:01:20.852Z,1.40
2023-10-04T14:03:52.093Z,1.90
2023-10-04T14:06:18.747Z,2.00
2023-10-04T14:08:52.053Z,1.60
2023-10-04T14:11:21.238Z,2.10
2023-10-04T14:13:55.893Z,1.40
2023-10-04T14:16:23.814Z,2.10
2023-10-04T14:18:50.518Z,1.90
2023-10-04T14:21:17.279Z,2.20
2023-10-04T14:23:43.801Z,2.20
2023-10-04T14:26:12.533Z,2.20
2023-10-04T14:28:41.235Z,2.20
2023-10-04T14:31:12.154Z,2.30
2023-10-04T14:33:44.055Z,1.80
2023-10-04T14:36:13.216Z,1.90
2023-10-04T14:38:42.655Z,1.70
2023-10-04T14:41:09.369Z,2.20
2023-10-04T14:43:36.611Z,2.10
2023-10-04T14:46:05.777Z,1.90
2023-10-04T14:48:35.183Z,1.70
2023-10-04T14:51:12.918Z,1.70
2023-10-04T14:53:42.835Z,2.10
2023-10-04T14:56:09.706Z,2.20
2023-10-04T14:58:43.920Z,2.00
2023-10-04T15:01:13.333Z,2.40
2023-10-04T15:03:42.603Z,2.20
2023-10-04T15:06:18.292Z,1.70
2023-10-04T15:08:47.321Z,1.70
2023-10-04T15:11:14.199Z,1.90
2023-10-04T15:13:41.933Z,2.20
2023-10-04T15:16:11.376Z,1.70
2023-10-04T15:18:38.473Z,2.30
2023-10-04T15:21:06.482Z,2.20
2023-10-04T15:23:39.556Z,2.20
2023-10-04T15:26:13.124Z,2.10
2023-10-04T15:28:44.640Z,2.10
2023-10-04T15:31:13.542Z,2.00
2023-10-04T15:33:45.047Z,2.20
2023-10-04T15:36:16.638Z,2.70
2023-10-04T15:38:43.843Z,2.10
2023-10-04T15:41:16.159Z,2.30
2023-10-04T15:43:45.492Z,2.00
2023-10-04T15:46:14.612Z,1.90
2023-10-04T15:48:44.052Z,2.10
2023-10-04T15:51:13.182Z,2.30
2023-10-04T15:53:39.958Z,1.90
2023-10-04T15:56:06.961Z,2.00
2023-10-04T15:58:40.874Z,2.30
2023-10-04T16:01:10.263Z,2.60
2023-10-04T16:03:37.242Z,2.20
2023-10-04T16:06:04.278Z,2.30
2023-10-04T16:08:35.452Z,2.70
2023-10-04T16:11:09.445Z,2.50
2023-10-04T16:13:39.317Z,2.90
2023-10-04T16:16:13.713Z,2.50
2023-10-04T16:18:42.694Z,2.30
2023-10-04T16:21:14.257Z,2.20
2023-10-04T16:23:40.774Z,2.80
2023-10-04T16:26:12.784Z,3.10
2023-10-04T16:28:42.392Z,2.70
2023-10-04T16:31:09.636Z,2.60
2023-10-04T16:33:38.490Z,2.60
2023-10-04T16:36:05.291Z,3.10
2023-10-04T16:38:32.893Z,2.60
2023-10-04T16:41:04.333Z,3.00
2023-10-04T16:43:33.214Z,3.10
2023-10-04T16:46:02.241Z,3.40
2023-10-04T16:48:33.322Z,4.00
2023-10-04T16:51:00.062Z,4.20
2023-10-04T16:53:29.213Z,5.50
2023-10-04T16:55:55.927Z,5.10
2023-10-04T16:58:22.509Z,5.50
2023-10-04T17:00:53.985Z,5.00
2023-10-04T17:03:22.753Z,5.10
2023-10-04T17:05:52.338Z,4.80
2023-10-04T17:08:19.125Z,4.60
2023-10-04T17:10:47.550Z,4.60
2023-10-04T17:13:17.229Z,4.70
2023-10-04T17:15:47.819Z,4.20
2023-10-04T17:18:14.604Z,4.60
2023-10-04T17:20:41.489Z,5.50
2023-10-04T17:23:08.064Z,5.10
2023-10-04T17:25:40.175Z,5.00
2023-10-04T17:28:10.475Z,5.50
2023-10-04T17:30:41.444Z,4.90
2023-10-04T17:33:10.710Z,5.70
2023-10-04T17:35:40.531Z,5.30
2023-10-04T17:38:10.025Z,4.90
2023-10-04T17:40:41.592Z,4.50
2023-10-04T17:43:11.631Z,5.10
2023-10-04T17:45:41.323Z,5.20
2023-10-04T17:48:08.202Z,5.80
2023-10-04T17:50:36.039Z,5.90
2023-10-04T17:53:05.579Z,6.40
2023-10-04T17:55:32.258Z,6.60
2023-10-04T17:57:58.814Z,6.70
2023-10-04T18:00:30.687Z,5.80
2023-10-04T18:02:57.553Z,6.60
2023-10-04T18:05:27.772Z,6.80
2023-10-04T18:07:54.581Z,6.50
2023-10-04T18:10:21.354Z,6.50
2023-10-04T18:12:52.186Z,6.10
2023-10-04T18:15:21.970Z,6.60
2023-10-04T18:17:48.774Z,6.00
2023-10-04T18:20:19.725Z,6.00
2023-10-04T18:22:49.067Z,5.70
2023-10-04T18:25:19.083Z,5.00
2023-10-04T18:27:47.994Z,4.70
2023-10-04T18:30:17.140Z,5.40
2023-10-04T18:32:44.016Z,4.70
2023-10-04T18:35:11.683Z,4.60
2023-10-04T18:37:40.545Z,5.00
2023-10-04T18:40:10.147Z,4.90
2023-10-04T18:42:38.581Z,4.70
2023-10-04T18:45:08.603Z,5.00
2023-10-04T18:47:35.922Z,5.10
2023-10-04T18:50:03.033Z,4.50
2023-10-04T18:52:30.053Z,5.00
2023-10-04T18:55:04.736Z,4.60
2023-10-04T18:57:32.723Z,5.00
2023-10-04T19:00:06.111Z,5.10
2023-10-04T19:02:36.643Z,5.30
2023-10-04T19:05:07.862Z,5.10
2023-10-04T19:07:47.335Z,4.80
2023-10-04T19:10:15.556Z,5.20
2023-10-04T19:12:45.990Z,5.70
2023-10-04T19:15:15.178Z,5.50
2023-10-04T19:17:46.366Z,5.40
2023-10-04T19:20:17.114Z,6.30
2023-10-04T19:22:43.871Z,5.90
2023-10-04T19:25:11.163Z,6.40
2023-10-04T19:27:42.451Z,7.70
2023-10-04T19:30:11.263Z,6.50
2023-10-04T19:32:39.666Z,6.60
2023-10-04T19:35:07.058Z,6.70
2023-10-04T19:37:34.095Z,6.40
2023-10-04T19:40:03.812Z,5.60
2023-10-04T19:42:32.784Z,6.30
2023-10-04T19:45:02.109Z,6.20
2023-10-04T19:47:29.991Z,7.20
2023-10-04T19:50:01.863Z,6.30
2023-10-04T19:52:30.864Z,6.60
2023-10-04T19:55:00.463Z,6.00
2023-10-04T19:57:28.616Z,6.20
2023-10-04T19:59:55.934Z,5.80
2023-10-04T20:02:22.733Z,6.00
2023-10-04T20:04:53.683Z,5.50
2023-10-04T20:07:26.716Z,5.50
2023-10-04T20:09:56.194Z,5.30
2023-10-04T20:12:22.986Z,5.60
2023-10-04T20:14:58.201Z,6.00
2023-10-04T20:17:25.174Z,5.70
2023-10-04T20:20:04.811Z,5.50
2023-10-04T20:22:48.013Z,6.20
2023-10-04T20:25:18.323Z,6.40
2023-10-04T20:27:46.063Z,6.00
2023-10-04T20:30:18.873Z,5.50
2023-10-04T20:32:46.300Z,6.30
2023-10-04T20:35:18.538Z,5.30
2023-10-04T20:37:45.392Z,5.50
2023-10-04T20:40:12.817Z,5.80
2023-10-04T20:42:42.761Z,6.20
2023-10-04T20:45:12.098Z,6.20
2023-10-04T20:47:43.191Z,6.60
2023-10-04T20:50:13.193Z,6.50
2023-10-04T20:52:47.311Z,5.90
2023-10-04T20:55:19.373Z,6.60
2023-10-04T20:57:48.305Z,6.00
2023-10-04T21:00:19.194Z,6.30
2023-10-04T21:02:48.373Z,6.30
2023-10-04T21:05:15.375Z,5.90
2023-10-04T21:07:45.647Z,6.70
2023-10-04T21:10:17.393Z,6.80
2023-10-04T21:12:44.564Z,7.10
2023-10-04T21:15:17.639Z,6.70
2023-10-04T21:17:45.628Z,7.40
2023-10-04T21:20:18.096Z,6.80
2023-10-04T21:22:49.630Z,6.10
2023-10-04T21:25:19.159Z,5.90
2023-10-04T21:27:50.179Z,7.00
2023-10-04T21:30:29.634Z,6.60
2023-10-04T21:33:03.811Z,5.90
2023-10-04T21:35:34.745Z,6.00
2023-10-04T21:38:08.283Z,6.00
2023-10-04T21:40:42.658Z,5.70
2023-10-04T21:43:11.609Z,5.80
2023-10-04T21:45:46.996Z,6.00
2023-10-04T21:48:29.148Z,6.20
2023-10-04T21:50:58.744Z,5.40
2023-10-04T21:53:28.189Z,6.20
2023-10-04T21:55:57.526Z,5.70
2023-10-04T21:58:24.150Z,5.50
2023-10-04T22:00:58.608Z,5.80
2023-10-04T22:03:26.800Z,5.20
2023-10-04T22:05:58.492Z,5.80
2023-10-04T22:08:28.448Z,5.30
2023-10-04T22:10:55.956Z,5.20
2023-10-04T22:13:23.802Z,5.70
2023-10-04T22:15:56.042Z,5.20
2023-10-04T22:18:27.133Z,6.00
2023-10-04T22:20:54.808Z,5.20
2023-10-04T22:23:25.002Z,5.20
2023-10-04T22:25:55.546Z,5.40
2023-10-04T22:30:56.452Z,5.70
2023-10-04T22:33:27.475Z,6.00
2023-10-04T22:35:57.192Z,5.70
2023-10-04T22:38:25.971Z,6.30
2023-10-04T22:40:56.271Z,5.80
2023-10-04T22:43:25.197Z,5.70
2023-10-04T22:45:55.555Z,5.40
2023-10-04T22:48:22.117Z,5.30
2023-10-04T22:50:52.491Z,5.20
2023-10-04T22:53:20.050Z,5.30
2023-10-04T22:55:51.406Z,5.50
2023-10-04T22:58:30.656Z,5.80
2023-10-04T23:01:11.698Z,5.70
2023-10-04T23:03:44.985Z,5.90
2023-10-04T23:06:15.071Z,4.90
2023-10-04T23:08:41.712Z,5.50
2023-10-04T23:11:11.236Z,5.20
2023-10-04T23:13:50.283Z,5.20
2023-10-04T23:16:29.904Z,5.60
2023-10-04T23:19:11.131Z,5.70
2023-10-04T23:21:38.702Z,5.40
2023-10-04T23:24:08.801Z,5.10
2023-10-04T23:26:36.415Z,5.50
2023-10-04T23:29:06.689Z,5.50
2023-10-04T23:31:37.643Z,6.00
2023-10-04T23:34:09.234Z,5.20
2023-10-04T23:36:36.856Z,5.50
2023-10-04T23:39:10.318Z,5.80
2023-10-04T23:41:44.698Z,5.30
2023-10-04T23:44:20.146Z,5.70
2023-10-04T23:46:47.168Z,4.80
2023-10-04T23:49:18.980Z,5.50
2023-10-04T23:51:52.827Z,5.30
2023-10-04T23:54:23.667Z,5.60
2023-10-04T23:56:53.977Z,6.00
2023-10-04T23:59:22.501Z,6.20
